Sasebo, Japan
Current Conditions -  °F | °C
As of 8:30 AM on Sunday 26 Oct 2014 (Local Time) from RJFU Reporting Station
Thunderstorm Thunderstorm  
Wind Chill: 66°   Ceiling: 11000
Heat Index: 66°   Visibility: 6mi
Dew Point: 61°   Wind: 13mph
Humidity: 83%   Direction: 160°SSE
Pressure: 30.09"   Gusts: NA
Location:  33.16°N, 129.72°E
Report Text: RJFU 252330Z 16011KT 9999 -TSRA FEW020 FEW030CB SCT070 BKN110 19/16 Q1019 RMK 1CU020 1CB030 3AC070 6AC110 A3009 FBL TS 20KM SW MOV NE
Loading
Personal Weather Stations






























Interactive Weather Map
Tropical Storm Tracking
New forecast layout! Learn more

10-Day Weather Forecast

Advertisements
Track Severe Weather on mobile